This is the latest recevied weather packets stored in our database for station/object OE-11204. If no packets are shown the sender has not sent any weather packets the latest 10 day(s).
| Time | Temp. | Humidity | Pressure | Rain* | Wind** | Luminosity | Snow |
|---|---|---|---|---|---|---|---|
| 1787811915 | 18.33° C | 82% | 1018.6 hPa | 0 mm | - | 223 W/m² | - |
| 1787811327 | 17.22° C | 83% | 1019 hPa | 0 mm | - | 186 W/m² | - |
| 1787810715 | 16.67° C | 85% | 1019.2 hPa | 0 mm | - | 167 W/m² | - |
| 1787810115 | 16.11° C | 88% | 1019.2 hPa | 0 mm | - | 130 W/m² | - |
| 1787809288 | 15.56° C | 90% | 1019.4 hPa | 0 mm | - | 56 W/m² | - |
| 1787808915 | 15.56° C | 90% | 1019.6 hPa | 0 mm | - | 43 W/m² | - |
| 1787808315 | 15° C | 91% | 1019.7 hPa | 0 mm | - | 25 W/m² | - |
| 1787807488 | 15° C | 91% | 1019.7 hPa | 0 mm | - | 12 W/m² | - |
| 1787807115 | 15° C | 90% | 1019.7 hPa | 0 mm | - | 12 W/m² | - |
| 1787806515 | 15.56° C | 89% | 1019.6 hPa | 0 mm | - | 6 W/m² | - |
| 1787805687 | 15.56° C | 91% | 1019.7 hPa | 0 mm | - | 6 W/m² | - |
| 1787805315 | 15° C | 91% | 1019.6 hPa | 0 mm | - | 0 W/m² | - |
| 1787804715 | 15.56° C | 92% | 1019.4 hPa | 0 mm | - | 0 W/m² | - |
| 1787803888 | 15° C | 92% | 1019.5 hPa | 0 mm | - | 0 W/m² | - |
| 1787803515 | 15° C | 90% | 1019.5 hPa | 0 mm | - | 0 W/m² | - |
| 1787802915 | 15.56° C | 90% | 1019.4 hPa | 0 mm | - | 0 W/m² | - |
| 1787802315 | 15.56° C | 91% | 1019.1 hPa | 0 mm | - | 0 W/m² | - |
| 1787801715 | 15.56° C | 92% | 1019.2 hPa | 0 mm | - | 0 W/m² | - |
| 1787801115 | 15.56° C | 92% | 1019.1 hPa | 0 mm | - | 0 W/m² | - |
| 1787800288 | 15.56° C | 92% | 1019.1 hPa | 0 mm | - | 0 W/m² | - |
| 1787799915 | 15.56° C | 91% | 1019.4 hPa | 0 mm | - | 0 W/m² | - |
| 1787799315 | 15.56° C | 92% | 1019.2 hPa | 0 mm | - | 0 W/m² | - |
| 1787798487 | 15.56° C | 91% | 1019.1 hPa | 0 mm | - | 0 W/m² | - |
| 1787798115 | 15.56° C | 92% | 1019.3 hPa | 0 mm | - | 0 W/m² | - |
| 1787797515 | 15.56° C | 92% | 1019.3 hPa | 0 mm | - | 0 W/m² | - |
* Rain latest hour (hover to see other rain measurements)
** Current wind speed in m/s (hover to see current wind gust speed)